Time;durP1;ratioP1;P1;durP2;ratioP2;P2;SDS_P1;SDS_P2;PMS_P1;PMS_P2;Temp;Humidity;BMP_temperature;BMP_pressure;BME280_temperature;BME280_humidity;BME280_pressure;Samples;Min_cycle;Max_cycle;Signal;HPM_P1;HPM_P2
2023/01/24 05:12:46;;;;;;;17.95;10.35;;;;;;;2.43;100.00;101753.13;5558160;32;299865;-86
2023/01/24 05:15:51;;;;;;;23.95;11.70;;;;;;;2.36;100.00;101753.09;5549848;32;33792;-85
2023/01/24 05:18:54;;;;;;;22.42;10.82;;;;;;;2.35;100.00;101761.81;5557891;32;34917;-86
2023/01/24 05:21:57;;;;;;;17.08;10.45;;;;;;;2.35;100.00;101754.84;5551284;32;35180;-85
2023/01/24 05:25:00;;;;;;;18.70;11.23;;;;;;;2.33;100.00;101760.94;5545940;32;34223;-85
2023/01/24 05:28:04;;;;;;;20.17;11.12;;;;;;;2.39;100.00;101763.59;5543974;32;33602;-85
2023/01/24 05:31:09;;;;;;;19.83;11.02;;;;;;;2.35;100.00;101767.94;5544256;32;34804;-85
2023/01/24 05:34:12;;;;;;;17.95;10.10;;;;;;;2.34;100.00;101767.91;5550266;32;34120;-85
2023/01/24 05:37:15;;;;;;;17.65;10.70;;;;;;;2.29;100.00;101766.16;5547559;32;33780;-86
2023/01/24 05:40:20;;;;;;;18.40;10.52;;;;;;;2.29;100.00;101762.66;5544648;32;34257;-85
2023/01/24 05:43:23;;;;;;;17.42;10.00;;;;;;;2.29;100.00;101766.16;5544557;32;33867;-85
2023/01/24 05:46:28;;;;;;;17.23;10.35;;;;;;;2.27;100.00;101762.63;5544266;32;33702;-85
2023/01/24 05:49:31;;;;;;;19.55;11.50;;;;;;;2.30;100.00;101764.41;5548020;32;33845;-85
2023/01/24 05:52:34;;;;;;;18.23;10.48;;;;;;;2.27;100.00;101762.63;5546207;32;33544;-85
2023/01/24 05:55:37;;;;;;;23.58;12.35;;;;;;;2.27;100.00;101765.25;5548623;32;33923;-85
2023/01/24 05:58:43;;;;;;;21.25;12.40;;;;;;;2.21;100.00;101764.34;5549626;32;34649;-85
2023/01/24 06:01:47;;;;;;;20.05;12.25;;;;;;;2.27;100.00;101770.50;5551874;32;33689;-85
2023/01/24 06:04:51;;;;;;;21.52;12.48;;;;;;;2.28;100.00;101780.09;5559798;32;34401;-84
2023/01/24 06:07:53;;;;;;;21.87;13.95;;;;;;;2.26;100.00;101779.22;5561488;32;34447;-84
2023/01/24 06:11:04;;;;;;;23.42;14.05;;;;;;;2.33;100.00;101777.53;5566197;32;34644;-85
2023/01/24 06:14:07;;;;;;;27.45;15.07;;;;;;;2.24;100.00;101793.16;5549125;32;33784;-85
2023/01/24 06:17:10;;;;;;;27.33;16.35;;;;;;;2.22;100.00;101787.03;5546258;32;34540;-85
2023/01/24 06:20:13;;;;;;;32.50;16.52;;;;;;;2.21;100.00;101793.16;5547001;32;34159;-85
2023/01/24 06:23:25;;;;;;;31.80;18.05;;;;;;;2.07;100.00;101798.25;5533786;32;34104;-85
2023/01/24 06:26:28;;;;;;;28.92;17.90;;;;;;;1.98;100.00;101799.94;5542538;32;34013;-85
2023/01/24 06:29:31;;;;;;;35.17;19.15;;;;;;;1.91;100.00;101805.97;5531188;32;33944;-85
2023/01/24 06:33:15;;;;;;;33.15;20.23;;;;;;;1.90;100.00;101806.84;5533590;32;33831;-85
2023/01/24 06:36:47;;;;;;;33.80;20.60;;;;;;;1.97;100.00;101805.16;5510861;32;33799;-85
2023/01/24 06:39:51;;;;;;;;;;;;;;;1.99;100.00;101809.56;5530048;32;33363;-85
2023/01/24 06:42:54;;;;;;;40.65;21.15;;;;;;;1.93;100.00;101809.50;5532697;32;34216;-85
2023/01/24 06:45:57;;;;;;;41.35;22.73;;;;;;;1.96;100.00;101814.75;5525322;32;33924;-85
2023/01/24 06:49:00;;;;;;;36.60;20.92;;;;;;;2.01;100.00;101807.81;5529267;32;34031;-85
2023/01/24 06:52:03;;;;;;;34.08;20.37;;;;;;;1.95;100.00;101812.09;5533853;32;34404;-85
2023/01/24 06:55:06;;;;;;;39.67;21.33;;;;;;;1.93;100.00;101813.84;5548838;32;34644;-84
2023/01/24 06:58:09;;;;;;;34.13;20.62;;;;;;;1.96;100.00;101811.25;5545605;32;33886;-85
2023/01/24 07:01:12;;;;;;;34.80;20.15;;;;;;;1.96;100.00;101811.25;5545853;32;34347;-87
2023/01/24 07:04:15;;;;;;;35.40;20.17;;;;;;;2.01;100.00;101812.19;5538223;32;34645;-86
2023/01/24 07:07:18;;;;;;;30.83;19.17;;;;;;;2.14;100.00;101821.91;5542502;32;34074;-87
2023/01/24 07:10:21;;;;;;;33.17;18.98;;;;;;;2.14;100.00;101815.78;5532523;32;34133;-87
2023/01/24 07:13:24;;;;;;;30.60;18.75;;;;;;;2.20;100.00;101818.44;5515415;32;34466;-88
2023/01/24 07:20:06;;;;;;;30.80;18.65;;;;;;;2.42;100.00;101827.34;5515689;29;20084;-88
2023/01/24 07:23:31;;;;;;;33.90;19.23;;;;;;;2.52;100.00;101828.28;5615106;26;32458;-88
2023/01/24 07:26:34;;;;;;;33.38;19.00;;;;;;;2.45;100.00;101830.88;5557033;32;33778;-87
2023/01/24 07:29:37;;;;;;;39.10;20.25;;;;;;;2.49;100.00;101835.25;5559733;32;34106;-91
2023/01/24 07:32:40;;;;;;;35.00;19.62;;;;;;;2.61;100.00;101839.72;5551946;32;34417;-88
2023/01/24 07:35:43;;;;;;;32.38;19.65;;;;;;;2.61;100.00;101843.19;5549233;32;34270;-86
2023/01/24 07:38:46;;;;;;;36.28;19.48;;;;;;;2.79;100.00;101838.94;5556671;32;34948;-87
2023/01/24 07:41:50;;;;;;;40.10;20.20;;;;;;;2.97;100.00;101846.06;5548872;32;33902;-87
2023/01/24 07:44:53;;;;;;;36.83;19.70;;;;;;;3.04;100.00;101839.97;5557952;32;33782;-87
2023/01/24 07:47:58;;;;;;;31.45;17.98;;;;;;;3.27;100.00;101849.69;5555914;32;33749;-87
2023/01/24 07:51:01;;;;;;;34.33;18.33;;;;;;;3.51;100.00;101848.03;5553599;32;33958;-88
2023/01/24 07:54:04;;;;;;;32.28;17.60;;;;;;;3.69;100.00;101844.59;5562002;32;33850;-88
2023/01/24 07:57:08;;;;;;;27.87;16.98;;;;;;;3.81;100.00;101853.38;5556656;32;34084;-87
2023/01/24 08:00:11;;;;;;;26.17;16.12;;;;;;;3.83;100.00;101855.12;5555259;32;34279;-88
2023/01/24 08:03:17;;;;;;;26.77;15.30;;;;;;;3.96;100.00;101850.78;5553349;32;33679;-87
2023/01/24 08:06:20;;;;;;;25.90;15.90;;;;;;;4.14;100.00;101856.94;5567134;32;33881;-88
2023/01/24 08:09:22;;;;;;;26.85;16.25;;;;;;;4.37;100.00;101858.69;5554516;32;33604;-88
2023/01/24 08:12:25;;;;;;;25.60;15.23;;;;;;;4.41;100.00;101860.44;5568442;32;33866;-88
2023/01/24 08:15:29;;;;;;;27.67;15.57;;;;;;;4.21;100.00;101865.69;5560079;32;34607;-88
2023/01/24 08:18:33;;;;;;;23.35;14.73;;;;;;;4.41;100.00;101863.06;5557396;32;33757;-87
2023/01/24 08:21:36;;;;;;;25.83;15.15;;;;;;;4.64;100.00;101873.59;5559246;31;33879;-88
2023/01/24 08:24:39;;;;;;;23.48;14.60;;;;;;;4.76;100.00;101872.69;5557719;32;33545;-88
2023/01/24 08:27:42;;;;;;;21.83;14.32;;;;;;;4.91;100.00;101870.91;5562614;32;33541;-88
2023/01/24 08:30:46;;;;;;;23.00;13.55;;;;;;;4.82;100.00;101879.66;5561653;32;34205;-87
2023/01/24 08:33:51;;;;;;;26.27;14.20;;;;;;;5.07;100.00;101874.37;5565490;32;34535;-88
2023/01/24 08:36:54;;;;;;;22.80;13.52;;;;;;;5.44;100.00;101876.00;5568219;32;35933;-88
2023/01/24 08:39:59;;;;;;;23.08;13.82;;;;;;;5.26;100.00;101886.59;5560593;32;33777;-87
2023/01/24 08:43:01;;;;;;;23.23;14.32;;;;;;;5.44;100.00;101882.16;5571023;32;33663;-87
2023/01/24 08:46:04;;;;;;;22.48;13.90;;;;;;;5.42;100.00;101878.63;5569709;32;34863;-87
2023/01/24 08:49:09;;;;;;;25.67;15.93;;;;;;;5.49;100.00;101879.50;5570300;32;35259;-87
2023/01/24 08:52:12;;;;;;;25.75;16.20;;;;;;;5.31;100.00;101876.06;5580247;32;35071;-87
2023/01/24 08:55:15;;;;;;;25.27;16.58;;;;;;;5.29;100.00;101875.19;5578775;32;35328;-86
2023/01/24 08:58:18;;;;;;;27.62;16.35;;;;;;;5.42;100.00;101877.78;5567474;32;34174;-89
2023/01/24 09:01:20;;;;;;;29.60;17.55;;;;;;;5.74;100.00;101879.38;5558550;32;34152;-87
2023/01/24 09:04:26;;;;;;;25.60;16.67;;;;;;;5.57;100.00;101885.59;5556391;32;34069;-86
2023/01/24 09:07:29;;;;;;;29.17;16.90;;;;;;;5.76;100.00;101883.75;5565476;32;33896;-86
2023/01/24 09:10:32;;;;;;;28.27;16.98;;;;;;;6.20;100.00;101881.75;5570561;32;33627;-87
2023/01/24 09:13:35;;;;;;;26.17;16.92;;;;;;;6.36;100.00;101884.28;5562426;32;34105;-87
2023/01/24 09:16:38;;;;;;;28.60;17.40;;;;;;;6.42;100.00;101888.63;5558188;32;34424;-87
2023/01/24 09:19:41;;;;;;;30.60;18.90;;;;;;;6.91;100.00;101889.97;5556672;32;34121;-87
2023/01/24 09:22:44;;;;;;;27.30;16.90;;;;;;;7.25;100.00;101886.09;5557730;32;34101;-87
2023/01/24 09:25:51;;;;;;;24.87;15.73;;;;;;;7.16;100.00;101892.34;5558765;32;34622;-86
2023/01/24 09:28:55;;;;;;;29.10;17.00;;;;;;;7.25;100.00;101888.72;5562699;32;34066;-87
2023/01/24 09:31:58;;;;;;;26.75;17.67;;;;;;;8.13;100.00;101877.84;5556695;32;34029;-86
2023/01/24 09:35:02;;;;;;;32.13;19.00;;;;;;;8.27;100.00;101890.87;5553772;32;33885;-87
2023/01/24 09:38:05;;;;;;;30.60;18.90;;;;;;;7.83;100.00;101888.84;5552928;32;34260;-86
2023/01/24 09:41:25;;;;;;;29.02;17.67;;;;;;;8.11;100.00;101880.53;5555243;32;34166;-89
2023/01/24 09:44:53;;;;;;;29.55;17.30;;;;;;;7.74;100.00;101876.66;5550836;32;33830;-88
2023/01/24 09:48:02;;;;;;;28.17;17.50;;;;;;;7.69;100.00;101870.56;5557909;32;33912;-88
2023/01/24 09:51:28;;;;;;;26.17;16.17;;;;;;;7.97;100.00;101875.47;5555989;32;34227;-87
2023/01/24 09:54:52;;;;;;;29.63;17.27;;;;;;;8.46;100.00;101875.59;5557267;32;33721;-86
2023/01/24 09:58:06;;;;;;;23.98;15.38;;;;;;;8.74;100.00;101868.06;5569682;31;34384;-86
2023/01/24 10:01:12;;;;;;;26.23;16.37;;;;;;;9.87;92.96;101873.75;5557961;32;34778;-87
2023/01/24 10:04:35;;;;;;;20.00;13.50;;;;;;;11.63;81.97;101869.22;5564152;32;33845;-86
2023/01/24 10:07:49;;;;;;;22.80;13.52;;;;;;;11.39;79.77;101867.25;5572508;32;34214;-86
2023/01/24 10:11:01;;;;;;;23.98;13.02;;;;;;;11.19;90.74;101859.84;5557657;32;34496;-86
2023/01/24 10:14:23;;;;;;;21.02;13.15;;;;;;;10.63;84.52;101861.34;5561807;32;34324;-90
2023/01/24 10:17:38;;;;;;;18.10;12.35;;;;;;;9.65;88.10;101853.91;5560616;32;34318;-86
2023/01/24 10:21:08;;;;;;;21.45;12.05;;;;;;;9.95;86.57;101855.88;5555198;32;34200;-86
2023/01/24 10:24:17;;;;;;;17.65;11.90;;;;;;;10.21;89.88;101849.97;5564073;32;34619;-87
2023/01/24 10:27:35;;;;;;;20.80;11.25;;;;;;;10.30;83.83;101851.53;5559553;32;33961;-89
2023/01/24 10:31:03;;;;;;;14.98;10.40;;;;;;;10.37;83.60;101847.81;5615993;26;34812;-90
2023/01/24 10:34:28;;;;;;;16.48;11.25;;;;;;;10.04;84.36;101842.44;5621159;26;33594;-89
2023/01/24 10:37:37;;;;;;;18.30;12.32;;;;;;;10.05;83.84;101833.56;5593109;26;35592;-88
2023/01/24 10:41:06;;;;;;;21.27;13.40;;;;;;;9.47;89.99;101835.78;5577921;31;33983;-88
2023/01/24 10:44:20;;;;;;;24.35;13.70;;;;;;;10.08;90.41;101840.56;5571581;31;33696;-89
2023/01/24 10:47:50;;;;;;;19.85;11.95;;;;;;;10.29;88.38;101833.87;5571618;31;34371;-88
2023/01/24 10:50:53;;;;;;;15.82;11.65;;;;;;;10.42;83.64;101826.50;5570642;31;34008;-87
2023/01/24 10:54:02;;;;;;;17.73;11.63;;;;;;;9.23;87.88;101820.37;5585855;31;34300;-88
2023/01/24 10:57:31;;;;;;;16.95;11.02;;;;;;;8.67;91.32;101816.19;5583499;31;34726;-88
2023/01/24 11:00:40;;;;;;;16.50;9.95;;;;;;;8.62;92.30;101818.88;5582379;31;33699;-89
2023/01/24 11:11:32;;;;;;;16.52;9.77;;;;;;;8.79;90.00;101808.91;704976;29;20838;-89
2023/01/24 11:14:52;;;;;;;15.48;10.05;;;;;;;9.09;87.32;101803.88;5578028;31;32574;-89
2023/01/24 11:29:18;;;;;;;16.90;11.45;;;;;;;8.26;95.87;101778.09;5549845;31;20079;-89
2023/01/24 11:32:32;;;;;;;21.10;12.15;;;;;;;8.13;98.48;101769.47;5562979;32;33948;-89
2023/01/24 11:35:40;;;;;;;18.98;11.12;;;;;;;8.32;100.00;101762.13;5558197;32;34538;-89
2023/01/24 11:38:44;;;;;;;17.42;11.10;;;;;;;8.50;96.10;101760.91;5566599;32;33905;-89
2023/01/24 11:41:56;;;;;;;15.35;10.73;;;;;;;8.69;95.57;101760.59;5569342;32;33761;-88
2023/01/24 11:45:17;;;;;;;17.92;11.65;;;;;;;8.47;94.00;101761.84;5568611;32;34135;-88
2023/01/24 11:48:54;;;;;;;14.60;10.25;;;;;;;8.42;95.03;101758.41;5561679;32;33716;-88
2023/01/24 11:52:04;;;;;;;17.60;10.65;;;;;;;8.63;93.31;101758.94;5556832;32;33713;-89
2023/01/24 11:55:28;;;;;;;19.45;11.27;;;;;;;8.52;91.13;101761.78;5562740;32;33810;-88
2023/01/24 11:58:37;;;;;;;19.17;11.40;;;;;;;8.66;92.18;101752.72;5557874;32;34319;-89
2023/01/24 12:05:55;;;;;;;15.07;9.85;;;;;;;8.78;92.02;101747.19;5654780;26;20091;-87
2023/01/24 12:09:16;;;;;;;15.00;9.98;;;;;;;8.97;89.95;101750.31;5547084;32;33554;-85
2023/01/24 12:13:06;;;;;;;13.57;9.35;;;;;;;8.68;89.47;101750.91;5542713;32;33853;-87
2023/01/24 12:16:37;;;;;;;13.13;8.27;;;;;;;8.52;88.29;101743.28;5518409;32;34262;-89
2023/01/24 12:19:52;;;;;;;12.68;8.73;;;;;;;8.77;89.29;101742.78;5537138;32;35129;-89
2023/01/24 12:22:57;;;;;;;14.70;8.30;;;;;;;8.46;89.20;101751.28;5549333;32;34049;-87
2023/01/24 12:26:16;;;;;;;13.77;8.27;;;;;;;8.16;90.70;101740.38;5549360;32;34105;-87
2023/01/24 12:29:48;;;;;;;15.05;8.45;;;;;;;8.22;90.33;101735.88;5536450;32;34014;-86
2023/01/24 12:32:59;;;;;;;12.68;7.97;;;;;;;8.20;89.34;101747.34;5533174;32;34384;-87
2023/01/24 12:36:42;;;;;;;10.75;7.50;;;;;;;8.26;89.67;101749.00;5531356;32;35078;-85
2023/01/24 12:40:15;;;;;;;15.65;8.18;;;;;;;8.31;89.89;101742.72;5531881;32;34697;-87
2023/01/24 12:43:39;;;;;;;13.25;7.68;;;;;;;8.30;90.70;101738.34;5526075;32;34439;-87
2023/01/24 12:46:53;;;;;;;11.50;7.62;;;;;;;8.44;89.28;101742.50;5542057;32;34076;-90
2023/01/24 12:50:26;;;;;;;10.43;7.35;;;;;;;8.22;89.81;101740.25;5547234;32;33854;-88
2023/01/24 12:53:54;;;;;;;13.88;7.62;;;;;;;8.17;90.25;101739.47;5545492;32;35252;-88
2023/01/24 12:57:04;;;;;;;11.93;7.78;;;;;;;8.09;90.65;101743.13;5549676;32;33884;-88
2023/01/24 13:00:31;;;;;;;10.65;7.80;;;;;;;7.87;90.51;101739.09;5534883;32;33953;-88
2023/01/24 13:03:46;;;;;;;11.80;7.95;;;;;;;7.82;92.29;101732.13;5529603;32;33893;-88
2023/01/24 13:06:55;;;;;;;14.30;8.98;;;;;;;7.63;92.89;101736.81;5532276;32;33847;-87
2023/01/24 13:10:27;;;;;;;18.67;11.50;;;;;;;7.62;94.84;101739.47;5547162;32;33933;-88
2023/01/24 13:13:35;;;;;;;22.45;15.20;;;;;;;7.37;100.00;101732.81;5552025;32;35400;-91
2023/01/24 13:17:07;;;;;;;27.33;16.90;;;;;;;7.20;100.00;101735.66;5551990;32;34871;-89
2023/01/24 13:20:38;;;;;;;32.38;18.58;;;;;;;7.13;100.00;101741.94;5546313;32;33651;-88
2023/01/24 13:23:58;;;;;;;28.83;18.62;;;;;;;7.17;100.00;101733.09;5541460;32;33720;-87
2023/01/24 13:27:17;;;;;;;31.90;18.73;;;;;;;7.07;100.00;101739.38;5533947;32;34830;-88
2023/01/24 13:30:27;;;;;;;36.28;19.90;;;;;;;6.97;100.00;101738.63;5542919;32;33933;-87
2023/01/24 13:33:46;;;;;;;36.80;20.15;;;;;;;6.88;100.00;101739.59;5546777;32;34430;-87
2023/01/24 13:36:51;;;;;;;35.58;19.23;;;;;;;6.82;100.00;101731.78;5533921;32;34037;-88
2023/01/24 13:40:04;;;;;;;33.10;19.80;;;;;;;6.80;100.00;101723.91;5531581;32;34042;-89
2023/01/24 13:50:36;;;;;;;34.03;19.83;;;;;;;6.73;100.00;101728.37;5527694;32;20112;-88
2023/01/24 13:53:59;;;;;;;30.77;19.17;;;;;;;6.72;100.00;101737.16;5517305;32;34082;-87
2023/01/24 13:57:29;;;;;;;31.10;18.80;;;;;;;6.85;100.00;101737.03;5518842;32;33767;-86
2023/01/24 14:00:35;;;;;;;33.28;18.65;;;;;;;6.88;100.00;101740.50;5516069;32;34575;-87
2023/01/24 14:03:38;;;;;;;33.08;18.52;;;;;;;6.71;100.00;101742.44;5539121;26;33873;-88
2023/01/24 14:06:44;;;;;;;30.65;17.87;;;;;;;6.70;100.00;101738.94;5537856;32;33533;-87
2023/01/24 14:09:47;;;;;;;31.75;17.62;;;;;;;6.77;100.00;101749.41;5551913;32;33762;-89
2023/01/24 14:12:54;;;;;;;27.45;17.42;;;;;;;6.67;100.00;101740.72;5550533;32;34654;-88
2023/01/24 14:15:57;;;;;;;33.53;18.05;;;;;;;6.54;100.00;101740.88;5544926;32;34559;-87
2023/01/24 14:19:07;;;;;;;33.10;17.23;;;;;;;6.54;100.00;101740.88;5542183;26;33920;-88
2023/01/24 14:22:10;;;;;;;26.75;16.52;;;;;;;6.55;100.00;101739.97;5523399;32;35300;-89
2023/01/24 14:25:51;;;;;;;27.48;16.10;;;;;;;6.49;100.00;101744.47;5512055;32;35785;-90
2023/01/24 14:29:02;;;;;;;25.67;15.98;;;;;;;6.45;100.00;101751.53;5513301;32;34517;-89
2023/01/24 14:32:14;;;;;;;;;;;;;;;6.30;100.00;101750.78;5532859;32;33546;-89
2023/01/24 14:35:22;;;;;;;28.67;15.52;;;;;;;6.25;100.00;101741.19;5535044;32;34946;-89
2023/01/24 14:38:25;;;;;;;26.02;16.10;;;;;;;6.15;100.00;101741.28;5518070;32;34387;-88
2023/01/24 14:41:29;;;;;;;27.83;16.83;;;;;;;6.11;100.00;101747.47;5512629;32;33925;-88
2023/01/24 14:44:37;;;;;;;26.00;16.12;;;;;;;6.04;100.00;101745.78;5517362;32;34761;-87
2023/01/24 14:47:45;;;;;;;29.65;16.95;;;;;;;5.98;100.00;101748.41;5530249;32;33839;-86
2023/01/24 14:50:57;;;;;;;29.25;17.20;;;;;;;5.91;100.00;101742.31;5528776;32;33788;-87
2023/01/24 14:53:59;;;;;;;29.17;16.95;;;;;;;5.83;100.00;101752.06;5525386;32;34573;-86
2023/01/24 14:57:19;;;;;;;27.40;16.35;;;;;;;5.76;100.00;101749.47;5526073;32;34025;-86
2023/01/24 15:00:23;;;;;;;28.55;17.40;;;;;;;5.68;100.00;101748.63;5529932;32;33843;-86
2023/01/24 15:03:31;;;;;;;30.17;16.95;;;;;;;5.62;100.00;101752.19;5530818;32;33976;-86
2023/01/24 15:06:34;;;;;;;29.63;17.10;;;;;;;5.66;100.00;101755.69;5535052;32;33895;-86
2023/01/24 15:09:36;;;;;;;31.83;17.45;;;;;;;5.59;100.00;101753.97;5545225;32;33912;-86
2023/01/24 15:12:40;;;;;;;30.83;18.33;;;;;;;5.49;100.00;101755.78;5543035;32;35180;-87
2023/01/24 15:15:43;;;;;;;31.48;18.87;;;;;;;5.50;100.00;101761.06;5531298;32;33546;-87
2023/01/24 15:18:55;;;;;;;34.88;19.10;;;;;;;5.43;100.00;101769.84;5526631;32;34286;-87
2023/01/24 15:21:58;;;;;;;34.35;18.98;;;;;;;5.38;100.00;101769.88;5530441;32;35018;-91
2023/01/24 15:25:01;;;;;;;31.45;19.90;;;;;;;5.34;100.00;101769.91;5529450;32;34041;-90
2023/01/24 15:28:16;;;;;;;36.13;20.58;;;;;;;5.31;100.00;101769.91;5530670;32;34084;-91
2023/01/24 15:31:48;;;;;;;35.22;20.45;;;;;;;5.21;100.00;101772.59;5530691;32;34489;-86
2023/01/24 15:34:50;;;;;;;42.30;22.20;;;;;;;5.13;100.00;101775.28;5527243;32;33932;-86
2023/01/24 15:38:28;;;;;;;39.05;21.87;;;;;;;5.02;100.00;101768.31;5513198;32;34449;-86
2023/01/24 15:45:01;;;;;;;43.67;24.63;;;;;;;4.91;100.00;101778.84;5513727;32;34138;-87
2023/01/24 15:48:21;;;;;;;42.45;25.70;;;;;;;4.87;100.00;101783.25;5516009;32;34006;-87
2023/01/24 15:51:36;;;;;;;47.05;25.23;;;;;;;4.75;100.00;101775.41;5512716;32;34288;-87
2023/01/24 15:54:41;;;;;;;45.80;26.10;;;;;;;4.67;100.00;101786.81;5508732;32;34643;-87
2023/01/24 15:57:44;;;;;;;45.17;26.58;;;;;;;4.62;100.00;101788.56;5511728;32;34655;-87
2023/01/24 16:00:55;;;;;;;48.17;26.40;;;;;;;4.49;100.00;101787.75;5511719;32;34011;-90
2023/01/24 16:04:12;;;;;;;48.17;27.85;;;;;;;4.41;100.00;101789.50;5528406;32;34451;-91
2023/01/24 16:07:18;;;;;;;50.08;27.80;;;;;;;4.32;100.00;101787.75;5522128;32;34769;-87
2023/01/24 16:10:21;;;;;;;51.03;27.75;;;;;;;4.27;100.00;101797.41;5527866;32;34468;-87
2023/01/24 16:13:36;;;;;;;50.88;28.20;;;;;;;4.21;100.00;101807.91;5529194;32;34324;-87
2023/01/24 16:16:39;;;;;;;51.85;28.83;;;;;;;4.16;100.00;101811.41;5527579;32;34707;-87
2023/01/24 16:19:41;;;;;;;50.88;27.40;;;;;;;4.08;100.00;101805.28;5520583;32;33800;-87
2023/01/24 16:22:44;;;;;;;50.60;28.52;;;;;;;4.02;100.00;101808.75;5510310;32;33887;-87
2023/01/24 16:25:51;;;;;;;48.17;26.52;;;;;;;3.97;100.00;101810.50;5510636;32;33923;-87
2023/01/24 16:28:54;;;;;;;44.40;27.08;;;;;;;3.90;100.00;101798.25;5509929;32;34022;-87
2023/01/24 16:31:57;;;;;;;48.28;26.92;;;;;;;3.85;100.00;101803.50;5510455;32;34367;-87
2023/01/24 16:35:00;;;;;;;47.35;26.55;;;;;;;3.82;100.00;101800.00;5514348;32;33985;-88
2023/01/24 16:38:04;;;;;;;44.58;26.37;;;;;;;3.81;100.00;101795.63;5512271;32;34017;-88
